Ana Sayfa
METAR-TAF:

METAR-TAF

Havaalanları :

Nouakchott, Moritanya

Enlem: 18-18-36N, Boylam: 015-58-11W, yükseklik: 3 m

Güncel hava durumu gözlemi

Rapor saat 03:00 UTC de 30 dakika önce yapıldı.
Rüzgar kuzeydan 8 kt
Sıcaklık 20°C
Nem 60%
Basınç 1018 hPa
Görüş mesafesi 10 km veya daha fazla
1500 m altında bulut yok ve kümülonimbus yok

METAR: GQNO 160300Z 36008KT CAVOK 20/12 Q1018 NOSIG

Saat: 03:30 (03:30 UTC)

Tahmin

Rapor saat 23:00 UTC de 4 saat ve 30 dakika önce yapıldı.
Ayın 16'si saat 00 UTC'den ayın 17'si saat 06 UTC'ye kadar geçerli Tahmin
Rüzgar kuzeydan 4 kt
Görüş mesafesi: 8000 m
Dönüşüyor
ayın 16'si saat 09 UTC'den ayın 16'si saat 12 UTC'ye kadar
Rüzgar doğu/kuzeydoğudan 6 kt
Dönüşüyor
ayın 16'si saat 19 UTC'den ayın 16'si saat 21 UTC'ye kadar
Rüzgar kuzeydan 6 kt

TAF: GQNO 152300Z 1600/1706 36004KT 8000 NSC BECMG 1609/1612 06006KT BECMG 1619/1621 35006KT

4.000'den fazla havaalanı için hava durumu gözlemleri ve tahminleri (METAR ve TAF raporları).

Kullanılabilir istasyonlar harita üzerinde sarı ve kırmızı noktalarla gösterilir.

İstasyonun adını görmek için fareyi noktanın üzerinde gezdirin.

Sonrasında hava gözlem ve tahminlerini görmek için tıklayın.

Haritayı değiştirmek için: yaklaştırmak için siyah artı işaretli yeşil düğmeye ve uzaklaştırmak için de eksi işaretli düğmeye hızla tıklayın; bitişik haritalar için yeşil okları kullanın.


METAR-TAF: